Time;durP1;ratioP1;P1;durP2;ratioP2;P2;SDS_P1;SDS_P2;PMS_P1;PMS_P2;Temp;Humidity;BMP_temperature;BMP_pressure;BME280_temperature;BME280_humidity;BME280_pressure;Samples;Min_cycle;Max_cycle;Signal;HPM_P1;HPM_P2
2022/01/13 00:00:29;;;;;;;21.88;8.85;;;;;;;;;;4968641;28;20129;-96
2022/01/13 00:02:55;;;;;;;20.20;8.93;;;;;;;;;;4985975;28;20290;-96
2022/01/13 00:05:29;;;;;;;15.93;7.90;;;;;;;;;;4951990;28;20066;-96
2022/01/13 00:07:58;;;;;;;14.93;6.45;;;;;;;;;;4968492;28;20027;-96
2022/01/13 00:10:45;;;;;;;28.45;9.10;;;;;;;;;;4985417;28;20492;-96
2022/01/13 00:13:20;;;;;;;28.33;9.07;;;;;;;;;;4986315;28;20031;-96
2022/01/13 00:16:26;;;;;;;17.48;7.60;;;;;;;;;;4985621;28;20035;-96
2022/01/13 00:21:48;;;;;;;17.85;7.78;;;;;;;;;;4970301;28;20030;-96
2022/01/13 00:24:17;;;;;;;31.73;10.35;;;;;;;;;;4984617;28;20043;-96
2022/01/13 00:26:46;;;;;;;13.43;8.25;;;;;;;;;;4983189;28;20483;-96
2022/01/13 00:29:12;;;;;;;14.48;7.50;;;;;;;;;;4964781;29;20031;-96
2022/01/13 00:31:41;;;;;;;25.42;8.82;;;;;;;;;;4948458;29;20077;-96
2022/01/13 00:34:18;;;;;;;21.00;7.40;;;;;;;;;;4975202;28;20035;-96
2022/01/13 00:36:44;;;;;;;16.17;7.82;;;;;;;;;;4966820;28;20031;-96
2022/01/13 00:39:12;;;;;;;15.40;7.68;;;;;;;;;;4966606;28;20038;-96
2022/01/13 00:41:39;;;;;;;14.43;6.43;;;;;;;;;;4949502;29;20027;-96
2022/01/13 00:44:08;;;;;;;25.50;7.28;;;;;;;;;;4981907;28;20054;-96
2022/01/13 00:46:45;;;;;;;21.48;6.57;;;;;;;;;;4965980;28;20023;-96
2022/01/13 00:49:13;;;;;;;;;;;1.50;88.90;;;;;;4966630;28;20039;-96
2022/01/13 00:52:01;;;;;;;17.35;6.70;;;;;;;;;;4981112;28;19929;-96
2022/01/13 00:54:37;;;;;;;12.43;5.63;;;;;;;;;;4983753;28;20034;-96
2022/01/13 00:57:27;;;;;;;14.30;6.35;;;;;;;;;;4983598;28;20031;-96
2022/01/13 01:02:45;;;;;;;15.30;7.07;;;;;;;;;;4963165;29;20070;-96
2022/01/13 01:05:19;;;;;;;20.38;6.30;;;;;;;;;;4964221;29;20055;-95
2022/01/13 01:07:50;;;;;;;16.40;5.15;;;;;;;;;;4983286;28;20491;-96
2022/01/13 01:13:18;;;;;;;18.02;6.72;;;;;;;;;;4977252;28;20038;-96
2022/01/13 01:16:06;;;;;;;26.48;8.88;;;;;;;;;;4968659;28;20026;-96
2022/01/13 01:27:06;;;;;;;16.15;6.95;;;;;;;;;;4983467;28;20115;-96
2022/01/13 01:29:43;;;;;;;16.42;6.28;;;;;;;;;;4965174;28;20039;-96
2022/01/13 01:32:14;;;;;;;7.47;5.28;;;;;;;;;;4964690;28;20401;-96
2022/01/13 01:34:55;;;;;;;20.45;6.75;;;;;;;;;;4962675;29;20047;-96
2022/01/13 01:37:24;;;;;;;14.45;6.00;;;;;;;;;;4993238;28;20027;-96
2022/01/13 01:40:09;;;;;;;;;;;1.60;89.30;;;;;;5000747;28;20042;-96
2022/01/13 01:42:55;;;;;;;20.73;8.32;;;;;;;;;;4991034;28;19906;-96
2022/01/13 01:45:30;;;;;;;18.50;9.48;;;;;;;;;;4965761;28;20555;-96
2022/01/13 01:47:56;;;;;;;25.92;9.30;;;;;;;;;;4980224;28;20023;-96
2022/01/13 01:50:24;;;;;;;12.30;7.18;;;;;;;;;;4961004;29;20074;-96
2022/01/13 01:52:51;;;;;;;15.00;7.45;;;;;;;;;;4962534;28;20317;-96
2022/01/13 01:55:20;;;;;;;28.40;8.15;;;;;;;;;;4977781;28;20487;-96
2022/01/13 02:00:26;;;;;;;15.90;6.55;;;;;;;;;;5525429;23;20056;-96
2022/01/13 02:02:55;;;;;;;16.67;7.80;;;;;;;;;;4991077;28;20046;-96
2022/01/13 02:05:23;;;;;;;10.02;4.55;;;;;;;;;;5000935;28;20106;-96
2022/01/13 02:07:54;;;;;;;11.82;6.30;;;;;;;;;;4995907;28;20042;-96
2022/01/13 02:10:20;;;;;;;;;;;1.10;89.30;;;;;;4964820;28;20041;-96
2022/01/13 02:12:53;;;;;;;19.05;5.63;;;;;;;;;;4982315;28;19990;-96
2022/01/13 02:18:25;;;;;;;36.00;8.85;;;;;;;;;;4948818;28;20027;-96
2022/01/13 02:20:57;;;;;;;25.38;6.97;;;;;;;;;;4981290;28;20107;-96
2022/01/13 02:23:43;;;;;;;12.80;5.78;;;;;;;;;;4967931;28;20029;-96
2022/01/13 02:26:10;;;;;;;19.98;7.82;;;;;;;;;;4953103;28;20106;-96
2022/01/13 02:28:38;;;;;;;17.85;7.35;;;;;;;;;;4964934;28;20148;-96
2022/01/13 02:31:04;;;;;;;13.18;5.45;;;;;;;;;;4982962;28;20042;-96
2022/01/13 02:33:35;;;;;;;30.52;7.80;;;;;;;;;;4961666;28;20031;-96
2022/01/13 02:36:02;;;;;;;17.73;6.72;;;;;;;;;;4978654;28;20550;-96
2022/01/13 02:38:29;;;;;;;10.15;5.57;;;;;;;;;;4982231;28;20042;-96
2022/01/13 02:49:18;;;;;;;11.43;5.13;;;;;;;;;;4980377;28;20073;-96
2022/01/13 02:51:54;;;;;;;12.30;4.32;;;;;;;;;;4980612;28;20050;-96
2022/01/13 02:54:40;;;;;;;19.10;6.30;;;;;;;;;;4940631;29;20059;-96
2022/01/13 02:57:08;;;;;;;17.38;6.20;;;;;;;;;;4941469;29;20075;-96
2022/01/13 02:59:34;;;;;;;11.02;5.43;;;;;;;;;;4953998;29;20031;-96
2022/01/13 03:02:01;;;;;;;24.33;7.43;;;;;;;;;;4960335;29;20051;-96
2022/01/13 03:04:28;;;;;;;10.90;5.25;;;;;;;;;;4943767;29;20126;-96
2022/01/13 03:07:15;;;;;;;20.38;6.53;;;;;;;;;;4961139;29;20551;-96
2022/01/13 03:09:44;;;;;;;9.10;5.90;;;;;;;;;;4960070;28;20558;-96
2022/01/13 03:12:14;;;;;;;8.50;4.55;;;;;;;;;;4958202;29;20504;-96
2022/01/13 03:14:47;;;;;;;11.90;6.55;;;;;;;;;;4960265;29;20039;-96
2022/01/13 03:17:14;;;;;;;28.75;7.53;;;;;;;;;;4945065;29;20042;-96
2022/01/13 03:20:05;;;;;;;16.38;6.78;;;;;;;;;;4961851;29;20027;-96
2022/01/13 03:22:31;;;;;;;16.92;6.32;;;;;;;;;;4944302;29;20031;-96
2022/01/13 03:25:05;;;;;;;14.13;5.50;;;;;;;;;;4958418;29;20047;-96
2022/01/13 03:27:36;;;;;;;14.00;5.47;;;;;;;;;;4939365;29;20041;-96
2022/01/13 03:30:05;;;;;;;16.85;5.85;;;2.50;88.50;;;;;;4954181;29;20038;-96
2022/01/13 03:32:31;;;;;;;21.65;6.97;;;;;;;;;;4967714;28;20522;-96
2022/01/13 03:34:57;;;;;;;14.32;6.18;;;;;;;;;;4963559;28;20106;-96
2022/01/13 03:37:23;;;;;;;23.67;6.95;;;;;;;;;;4964341;28;20105;-96
2022/01/13 03:40:02;;;;;;;20.98;7.70;;;;;;;;;;4980723;28;20027;-96
2022/01/13 03:42:28;;;;;;;14.50;7.28;;;;;;;;;;4942006;29;20104;-96
2022/01/13 03:45:17;;;;;;;18.73;5.60;;;;;;;;;;4944884;29;20503;-96
2022/01/13 03:47:46;;;;;;;19.25;6.00;;;;;;;;;;4961714;29;20032;-96
2022/01/13 03:50:18;;;;;;;8.95;5.13;;;;;;;;;;4945373;29;20050;-96
2022/01/13 03:53:12;;;;;;;9.45;4.68;;;2.60;87.50;;;;;;4963126;29;20043;-96
2022/01/13 03:55:59;;;;;;;12.13;5.93;;;;;;;;;;4963454;29;20086;-96
2022/01/13 03:58:29;;;;;;;18.17;7.00;;;;;;;;;;4963973;29;20027;-96
2022/01/13 04:02:00;;;;;;;13.07;6.20;;;2.60;87.30;;;;;;4945511;29;20570;-96
2022/01/13 04:04:44;;;;;;;14.25;6.78;;;2.60;87.40;;;;;;4941532;29;20043;-96
2022/01/13 04:07:13;;;;;;;17.70;6.68;;;;;;;;;;4941539;29;20091;-96
2022/01/13 04:09:39;;;;;;;15.95;5.70;;;;;;;;;;4941556;29;20035;-96
2022/01/13 04:12:07;;;;;;;12.02;4.53;;;;;;;;;;4926103;29;20091;-96
2022/01/13 04:14:43;;;;;;;8.48;4.95;;;;;;;;;;4941658;29;20036;-96
2022/01/13 04:17:33;;;;;;;24.88;7.13;;;2.70;86.60;;;;;;4940861;29;20115;-96
2022/01/13 04:20:19;;;;;;;19.95;6.13;;;;;;;;;;4926877;29;20050;-96
2022/01/13 04:22:52;;;;;;;15.95;6.88;;;;;;;;;;4941884;29;20040;-96
2022/01/13 04:25:24;;;;;;;18.88;7.03;;;;;;;;;;4925764;29;20044;-96
2022/01/13 04:28:04;;;;;;;18.17;6.90;;;;;;;;;;4944614;29;20032;-96
2022/01/13 04:30:48;;;;;;;11.95;5.97;;;;;;;;;;4925956;29;20032;-96
2022/01/13 04:34:01;;;;;;;20.30;8.35;;;2.70;86.70;;;;;;4927010;29;20062;-96
2022/01/13 04:36:46;;;;;;;15.48;5.95;;;;;;;;;;4925788;29;20028;-96
2022/01/13 04:39:36;;;;;;;12.98;6.45;;;2.60;86.40;;;;;;4962916;29;20043;-96
2022/01/13 04:42:03;;;;;;;11.77;6.13;;;;;;;;;;4981027;28;20055;-96
2022/01/13 04:44:32;;;;;;;15.13;7.07;;;;;;;;;;4986247;28;20066;-96
2022/01/13 04:46:58;;;;;;;17.92;6.50;;;;;;;;;;4952418;28;20553;-96
2022/01/13 04:49:30;;;;;;;16.05;5.72;;;;;;;;;;4986098;28;20086;-96
2022/01/13 04:52:41;;;;;;;17.50;6.60;;;2.70;87.10;;;;;;4984837;28;20414;-96
2022/01/13 04:55:38;;;;;;;21.63;6.78;;;2.70;86.90;;;;;;4986104;28;20463;-96
2022/01/13 04:58:05;;;;;;;17.13;7.90;;;2.70;87.00;;;;;;4986634;28;20110;-96
2022/01/13 05:00:35;;;;;;;;;;;2.60;87.10;;;;;;4968558;28;20038;-96
2022/01/13 05:03:23;;;;;;;15.95;7.55;;;;;;;;;;4968181;28;19918;-96
2022/01/13 05:05:50;;;;;;;13.95;6.97;;;;;;;;;;4955598;28;20515;-96
2022/01/13 05:08:23;;;;;;;12.23;6.07;;;;;;;;;;4951334;28;20404;-96
2022/01/13 05:11:08;;;;;;;16.75;6.20;;;;;;;;;;4985236;28;20042;-96
2022/01/13 05:13:55;;;;;;;12.95;5.18;;;;;;;;;;4947105;29;20098;-96
2022/01/13 05:19:26;;;;;;;11.23;5.40;;;;;;;;;;4966179;29;20550;-96
2022/01/13 05:25:26;;;;;;;16.35;6.03;;;2.70;87.00;;;;;;4946090;29;20047;-96
2022/01/13 05:27:52;;;;;;;11.85;6.18;;;;;;;;;;4947059;29;20032;-96
2022/01/13 05:30:19;;;;;;;12.77;5.45;;;;;;;;;;4946660;29;20042;-96
2022/01/13 05:32:46;;;;;;;14.02;6.22;;;;;;;;;;4946058;29;20032;-96
2022/01/13 05:35:37;;;;;;;9.55;6.13;;;2.60;88.00;;;;;;4946796;29;20020;-96
2022/01/13 05:38:08;;;;;;;11.20;5.57;;;;;;;;;;4940249;29;20034;-96
2022/01/13 05:40:37;;;;;;;11.10;5.45;;;2.60;87.20;;;;;;4965880;29;20027;-96
2022/01/13 05:43:04;;;;;;;14.80;7.90;;;2.30;88.50;;;;;;4948358;29;20031;-96
2022/01/13 05:45:33;;;;;;;14.93;7.43;;;;;;;;;;4947686;28;20046;-96
2022/01/13 05:47:59;;;;;;;16.60;6.63;;;;;;;;;;4966690;29;20039;-96
2022/01/13 05:50:26;;;;;;;10.60;4.45;;;2.50;87.90;;;;;;4965836;29;20038;-96
2022/01/13 05:52:52;;;;;;;12.50;7.20;;;;;;;;;;4967270;29;20019;-97
2022/01/13 05:55:19;;;;;;;9.63;5.22;;;;;;;;;;4968945;28;20059;-96
2022/01/13 05:57:45;;;;;;;22.83;6.30;;;;;;;;;;4954327;29;20046;-96
2022/01/13 06:00:14;;;;;;;17.70;5.97;;;2.50;87.70;;;;;;4944513;29;20067;-96
2022/01/13 06:02:40;;;;;;;16.23;7.40;;;;;;;;;;4971325;28;20069;-96
2022/01/13 06:05:08;;;;;;;9.98;4.93;;;;;;;;;;4985939;28;20592;-96
2022/01/13 06:07:34;;;;;;;15.70;5.95;;;;;;;;;;4985228;28;20023;-96
2022/01/13 06:10:06;;;;;;;18.38;5.70;;;;;;;;;;4983993;28;20046;-96
2022/01/13 06:12:37;;;;;;;14.18;5.53;;;;;;;;;;4965606;28;20027;-96
2022/01/13 06:15:27;;;;;;;17.13;6.82;;;;;;;;;;4966824;28;20050;-96
2022/01/13 06:18:03;;;;;;;13.90;6.47;;;;;;;;;;4982991;28;20038;-96
2022/01/13 06:20:31;;;;;;;15.57;4.77;;;;;;;;;;4982683;28;20414;-96
2022/01/13 06:23:00;;;;;;;12.40;5.50;;;;;;;;;;4962518;29;20278;-96
2022/01/13 06:25:28;;;;;;;17.15;6.05;;;;;;;;;;4966533;28;20132;-96
2022/01/13 06:27:54;;;;;;;18.27;6.80;;;;;;;;;;4978403;28;20027;-96
2022/01/13 06:30:21;;;;;;;16.50;6.20;;;;;;;;;;4981380;28;20038;-96
2022/01/13 06:33:08;;;;;;;17.80;6.47;;;2.70;87.10;;;;;;4949493;28;20117;-96
2022/01/13 06:35:37;;;;;;;14.68;6.20;;;;;;;;;;4981923;28;20030;-96
2022/01/13 06:38:05;;;;;;;13.95;6.93;;;;;;;;;;4974432;28;20035;-96
2022/01/13 06:40:54;;;;;;;11.95;6.30;;;;;;;;;;4950708;28;20023;-96
2022/01/13 06:43:20;;;;;;;15.48;7.10;;;;;;;;;;4964934;28;20030;-96
2022/01/13 06:45:47;;;;;;;13.50;6.63;;;;;;;;;;4964743;28;20054;-96
2022/01/13 06:48:12;;;;;;;20.92;6.25;;;;;;;;;;4958915;28;20396;-96
2022/01/13 06:50:39;;;;;;;16.13;6.68;;;;;;;;;;4977419;28;20039;-96
2022/01/13 06:53:05;;;;;;;17.02;7.57;;;;;;;;;;4993956;28;20034;-96
2022/01/13 06:55:31;;;;;;;12.82;7.07;;;;;;;;;;4965093;28;20037;-96
2022/01/13 06:58:01;;;;;;;13.90;6.13;;;;;;;;;;4963283;28;20027;-97
2022/01/13 07:00:27;;;;;;;14.30;7.05;;;;;;;;;;4971912;28;20043;-96
2022/01/13 07:03:12;;;;;;;13.32;4.93;;;;;;;;;;4968935;28;20055;-96
2022/01/13 07:05:41;;;;;;;17.00;7.20;;;;;;;;;;4955196;28;20174;-96
2022/01/13 07:08:22;;;;;;;13.48;5.25;;;;;;;;;;4925559;28;20054;-96
2022/01/13 07:10:49;;;;;;;28.30;8.35;;;;;;;;;;4959432;29;20563;-96
2022/01/13 07:13:15;;;;;;;16.13;7.43;;;;;;;;;;4967213;28;20400;-95
2022/01/13 07:15:44;;;;;;;11.38;5.70;;;;;;;;;;4951328;29;20039;-95
2022/01/13 07:18:29;;;;;;;19.33;7.43;;;2.70;87.10;;;;;;4957863;28;20070;-96
2022/01/13 07:20:56;;;;;;;14.18;5.93;;;;;;;;;;4970408;28;20031;-96
2022/01/13 07:23:23;;;;;;;18.45;8.80;;;;;;;;;;4989645;28;20023;-96
2022/01/13 07:25:49;;;;;;;15.52;7.38;;;;;;;;;;4987191;28;20090;-96
2022/01/13 07:28:16;;;;;;;18.33;7.32;;;;;;;;;;4988283;28;20023;-96
2022/01/13 07:30:46;;;;;;;17.73;7.50;;;;;;;;;;4941877;29;20044;-96
2022/01/13 07:33:12;;;;;;;12.70;6.65;;;;;;;;;;4971843;28;20023;-96
2022/01/13 07:35:38;;;;;;;19.08;8.15;;;;;;;;;;4965657;28;20063;-96
2022/01/13 07:38:05;;;;;;;14.80;7.07;;;;;;;;;;4964799;28;20082;-96
2022/01/13 07:40:31;;;;;;;10.70;6.20;;;;;;;;;;4938133;28;20043;-95
2022/01/13 07:42:57;;;;;;;11.50;7.10;;;;;;;;;;4950930;28;20687;-96
2022/01/13 07:45:23;;;;;;;19.95;7.75;;;;;;;;;;4955618;28;20043;-96
2022/01/13 07:47:49;;;;;;;16.40;7.25;;;;;;;;;;4950821;28;20031;-96
2022/01/13 07:50:15;;;;;;;17.88;7.57;;;;;;;;;;4952885;28;20038;-96
2022/01/13 07:52:42;;;;;;;22.10;8.10;;;;;;;;;;4964046;28;20046;-96
2022/01/13 07:55:08;;;;;;;16.30;6.53;;;;;;;;;;4955000;28;20027;-96
2022/01/13 07:57:34;;;;;;;16.55;7.32;;;;;;;;;;4959572;28;20108;-95
2022/01/13 08:00:00;;;;;;;12.65;6.50;;;;;;;;;;4974317;28;20031;-96
2022/01/13 08:02:26;;;;;;;15.38;7.20;;;;;;;;;;4954747;29;20054;-96
2022/01/13 08:04:52;;;;;;;12.68;6.13;;;;;;;;;;4941697;29;20385;-96
2022/01/13 08:07:18;;;;;;;13.75;6.25;;;;;;;;;;4955593;28;20041;-95
2022/01/13 08:09:44;;;;;;;20.98;7.82;;;;;;;;;;4955157;28;20022;-96
2022/01/13 08:12:10;;;;;;;16.42;6.15;;;;;;;;;;4952732;28;20051;-96
2022/01/13 08:14:36;;;;;;;18.80;8.10;;;;;;;;;;4952242;28;20045;-95
2022/01/13 08:17:03;;;;;;;13.40;5.43;;;;;;;;;;4971845;28;20033;-95
2022/01/13 08:19:48;;;;;;;15.90;6.65;;;;;;;;;;4972875;28;20118;-96
2022/01/13 08:22:15;;;;;;;14.32;6.03;;;;;;;;;;4956123;28;20492;-96
2022/01/13 08:24:42;;;;;;;15.32;7.13;;;;;;;;;;4968752;28;20493;-96
2022/01/13 08:27:08;;;;;;;16.58;5.18;;;;;;;;;;4961617;28;20031;-96
2022/01/13 08:29:34;;;;;;;14.68;8.73;;;;;;;;;;4961393;28;20373;-96
2022/01/13 08:32:00;;;;;;;13.70;5.93;;;;;;;;;;4961701;28;20042;-96
2022/01/13 08:34:26;;;;;;;17.45;5.78;;;;;;;;;;4978633;28;20125;-95
2022/01/13 08:36:52;;;;;;;13.07;4.88;;;;;;;;;;4976337;28;20019;-96
2022/01/13 08:39:19;;;;;;;11.40;5.97;;;;;;;;;;4974921;28;20079;-96
2022/01/13 08:41:45;;;;;;;17.48;6.53;;;;;;;;;;4956229;28;20031;-95
2022/01/13 08:44:11;;;;;;;15.73;6.47;;;;;;;;;;4970972;28;20113;-96
2022/01/13 08:46:38;;;;;;;20.15;6.38;;;;;;;;;;4955175;29;20102;-95
2022/01/13 08:49:04;;;;;;;12.98;6.28;;;;;;;;;;4971602;28;20033;-95
2022/01/13 08:51:30;;;;;;;20.98;6.82;;;;;;;;;;4955509;28;20052;-95
2022/01/13 08:53:56;;;;;;;22.52;6.28;;;;;;;;;;4947338;28;20039;-96
2022/01/13 08:56:22;;;;;;;10.90;7.25;;;;;;;;;;4940418;28;20617;-93
2022/01/13 08:58:48;;;;;;;21.27;6.70;;;;;;;;;;4960251;28;20027;-95
2022/01/13 09:01:14;;;;;;;16.58;5.85;;;;;;;;;;4957799;28;20608;-96
2022/01/13 09:03:40;;;;;;;17.45;6.65;;;;;;;;;;4944743;29;20055;-95
2022/01/13 09:06:06;;;;;;;13.25;6.32;;;;;;;;;;4971849;28;20054;-95
2022/01/13 09:08:33;;;;;;;21.95;6.28;;;;;;;;;;4974320;28;20074;-94
2022/01/13 09:11:00;;;;;;;14.73;5.90;;;;;;;;;;4957886;28;20089;-95
2022/01/13 09:13:26;;;;;;;16.10;6.43;;;;;;;;;;4974291;28;20144;-96
2022/01/13 09:15:59;;;;;;;25.23;9.73;;;;;;;;;;4974659;28;20031;-95
2022/01/13 09:18:48;;;;;;;21.02;6.60;;;;;;;;;;4955393;28;20035;-95
2022/01/13 09:21:15;;;;;;;17.25;7.75;;;;;;;;;;4948766;28;20495;-94
2022/01/13 09:23:41;;;;;;;10.63;4.93;;;;;;;;;;4969800;28;20113;-96
2022/01/13 09:26:07;;;;;;;11.48;6.70;;;;;;;;;;4977426;28;20170;-96
2022/01/13 09:28:34;;;;;;;12.32;5.75;;;;;;;;;;4977768;28;20026;-96
2022/01/13 09:31:00;;;;;;;17.80;6.15;;;;;;;;;;4958590;28;20042;-94
2022/01/13 09:33:26;;;;;;;15.70;6.07;;;;;;;;;;4980492;28;20035;-96
2022/01/13 09:38:42;;;;;;;20.07;7.57;;;;;;;;;;5113928;23;20058;-96
2022/01/13 09:41:25;;;;;;;10.85;5.97;;;;;;;;;;4963648;28;20275;-96
2022/01/13 09:43:51;;;;;;;11.50;6.25;;;;;;;;;;4962762;29;20067;-96
2022/01/13 09:46:17;;;;;;;20.27;6.88;;;;;;;;;;4971835;28;20034;-95
2022/01/13 09:48:51;;;;;;;20.95;8.07;;;;;;;;;;4938750;29;20030;-96
2022/01/13 09:51:46;;;;;;;11.98;5.68;;;;;;;;;;4973406;28;20042;-96
2022/01/13 09:57:32;;;;;;;13.15;7.38;;;2.80;83.70;;;;;;4972808;29;20515;-96
2022/01/13 10:00:39;;;;;;;17.98;10.00;;;;;;;;;;4971953;29;20518;-96
2022/01/13 10:03:33;;;;;;;19.20;7.28;;;;;;;;;;4961180;28;20106;-96
2022/01/13 10:06:01;;;;;;;26.33;9.00;;;;;;;;;;4971321;28;20030;-96
2022/01/13 10:08:44;;;;;;;21.05;6.63;;;;;;;;;;4972622;28;20105;-96
2022/01/13 10:11:28;;;;;;;12.50;5.75;;;;;;;;;;4955642;28;20046;-96
2022/01/13 10:14:02;;;;;;;15.52;7.15;;;;;;;;;;4974832;28;20026;-95
2022/01/13 10:16:28;;;;;;;18.20;5.95;;;;;;;;;;4972912;28;20027;-94
2022/01/13 10:18:55;;;;;;;14.45;6.63;;;;;;;;;;4973367;28;20027;-95
2022/01/13 10:21:21;;;;;;;22.90;7.03;;;3.00;81.70;;;;;;4982434;28;20015;-96
2022/01/13 10:24:12;;;;;;;23.73;6.85;;;3.00;82.10;;;;;;4976993;28;20027;-96
2022/01/13 10:26:41;;;;;;;15.32;6.50;;;3.10;82.50;;;;;;4997902;28;20039;-96
2022/01/13 10:29:08;;;;;;;21.25;7.18;;;3.10;82.20;;;;;;4978316;28;20037;-96
2022/01/13 10:31:51;;;;;;;15.77;5.97;;;3.30;81.80;;;;;;4997459;28;20050;-96
2022/01/13 10:34:23;;;;;;;24.23;8.23;;;3.40;81.10;;;;;;4995923;28;20086;-96
2022/01/13 10:37:00;;;;;;;13.95;5.45;;;;;;;;;;4974418;28;20109;-96
2022/01/13 10:39:45;;;;;;;19.17;7.07;;;;;;;;;;4970875;28;20045;-96
2022/01/13 10:42:45;;;;;;;18.50;7.88;;;;;;;;;;4975038;28;20039;-96
2022/01/13 10:45:19;;;;;;;14.63;5.97;;;4.10;78.10;;;;;;4972203;28;20046;-95
2022/01/13 10:47:54;;;;;;;20.08;7.88;;;4.10;77.30;;;;;;4963642;28;20046;-94
2022/01/13 10:50:21;;;;;;;20.15;7.78;;;;;;;;;;4971145;28;20030;-96
2022/01/13 10:52:49;;;;;;;17.33;5.35;;;;;;;;;;4982529;28;20022;-96
2022/01/13 10:55:15;;;;;;;12.25;5.82;;;;;;;;;;4970504;28;20122;-94
2022/01/13 10:57:42;;;;;;;13.13;5.45;;;;;;;;;;4972855;28;20114;-93
2022/01/13 11:00:17;;;;;;;17.77;6.28;;;;;;;;;;4969060;28;20031;-95
2022/01/13 11:03:00;;;;;;;24.15;5.97;;;;;;;;;;4960484;28;20508;-94
2022/01/13 11:05:28;;;;;;;16.33;7.43;;;4.40;75.70;;;;;;4957423;28;20134;-95
2022/01/13 11:07:54;;;;;;;15.10;6.13;;;;;;;;;;4955581;28;20375;-96
2022/01/13 11:10:21;;;;;;;12.35;5.63;;;;;;;;;;4974452;28;20114;-96
2022/01/13 11:12:55;;;;;;;17.25;6.90;;;;;;;;;;4975818;28;20034;-96
2022/01/13 11:15:21;;;;;;;15.35;6.60;;;;;;;;;;4959607;28;20030;-96
2022/01/13 11:17:49;;;;;;;20.77;7.70;;;;;;;;;;4976390;28;20022;-96
2022/01/13 11:20:17;;;;;;;15.40;7.25;;;;;;;;;;4969224;28;20559;-96
2022/01/13 11:22:46;;;;;;;24.10;7.78;;;4.40;77.70;;;;;;4960102;29;20072;-96
2022/01/13 11:25:13;;;;;;;14.77;6.88;;;;;;;;;;4967586;28;20456;-96
2022/01/13 11:27:40;;;;;;;19.60;8.73;;;;;;;;;;4970908;28;20025;-96
2022/01/13 11:30:15;;;;;;;21.85;6.53;;;4.50;75.80;;;;;;4958872;28;20676;-96
2022/01/13 11:32:44;;;;;;;10.68;5.75;;;4.50;75.40;;;;;;4980102;28;20077;-96
2022/01/13 11:35:23;;;;;;;13.82;6.60;;;4.50;74.80;;;;;;4962539;28;20029;-96
2022/01/13 11:37:50;;;;;;;17.05;6.20;;;;;;;;;;4978941;28;20035;-96
2022/01/13 11:40:25;;;;;;;17.20;6.75;;;;;;;;;;4979603;28;20042;-96
2022/01/13 11:42:51;;;;;;;21.85;7.15;;;;;;;;;;4958777;28;20027;-96
2022/01/13 11:45:17;;;;;;;19.27;5.35;;;;;;;;;;4976244;28;20050;-96
2022/01/13 11:47:44;;;;;;;11.73;5.78;;;;;;;;;;4979344;28;20250;-96
2022/01/13 11:50:19;;;;;;;15.63;7.05;;;4.60;75.00;;;;;;4978866;28;20035;-96
2022/01/13 11:52:53;;;;;;;17.77;5.72;;;;;;;;;;4961018;28;20066;-96
2022/01/13 11:55:27;;;;;;;17.48;6.65;;;;;;;;;;4976655;28;20048;-96
2022/01/13 11:58:10;;;;;;;13.25;5.85;;;;;;;;;;4977541;28;20026;-96
2022/01/13 12:00:36;;;;;;;18.02;7.18;;;;;;;;;;4961644;28;20118;-96
2022/01/13 12:03:21;;;;;;;20.05;7.10;;;;;;;;;;4979912;28;20447;-96
2022/01/13 12:05:47;;;;;;;22.45;6.80;;;;;;;;;;4975778;28;20038;-96
2022/01/13 12:08:32;;;;;;;15.60;6.60;;;;;;;;;;4978448;28;20031;-96
2022/01/13 12:10:58;;;;;;;17.00;6.93;;;;;;;;;;4964430;28;20108;-96
2022/01/13 12:13:31;;;;;;;19.80;6.20;;;;;;;;;;4944937;28;20071;-95
2022/01/13 12:15:57;;;;;;;14.23;6.55;;;;;;;;;;4976273;28;20031;-95
2022/01/13 12:19:07;;;;;;;16.58;6.18;;;5.90;69.60;;;;;;4975818;28;20025;-96
2022/01/13 12:21:42;;;;;;;19.67;7.13;;;6.00;68.80;;;;;;4967075;28;20035;-96
2022/01/13 12:24:09;;;;;;;14.88;6.93;;;;;;;;;;4975314;28;20140;-96
2022/01/13 12:26:35;;;;;;;13.80;6.05;;;;;;;;;;4957332;28;20023;-96
2022/01/13 12:29:21;;;;;;;17.90;8.63;;;6.10;68.40;;;;;;4953462;28;20042;-96
2022/01/13 12:31:50;;;;;;;21.52;7.65;;;;;;;;;;4969516;28;20023;-96
2022/01/13 12:34:43;;;;;;;19.65;7.45;;;;;;;;;;4957971;28;20412;-95
2022/01/13 12:37:12;;;;;;;16.80;8.35;;;;;;;;;;4965608;28;20047;-96
2022/01/13 12:39:44;;;;;;;17.75;9.27;;;;;;;;;;4975247;28;20046;-96
2022/01/13 12:42:14;;;;;;;20.13;6.45;;;;;;;;;;4945999;28;20038;-96
2022/01/13 12:47:26;;;;;;;15.15;6.93;;;;;;;;;;4966592;28;20559;-92
2022/01/13 12:49:53;;;;;;;25.70;10.05;;;;;;;;;;4975270;28;20041;-92
2022/01/13 12:52:20;;;;;;;14.93;5.93;;;;;;;;;;4986614;28;20030;-93
2022/01/13 12:54:46;;;;;;;19.85;8.15;;;;;;;;;;4975526;28;20031;-94
2022/01/13 12:57:13;;;;;;;18.67;7.25;;;;;;;;;;4975282;28;20697;-94
2022/01/13 12:59:39;;;;;;;13.52;7.68;;;;;;;;;;4954611;29;20030;-95
2022/01/13 13:02:05;;;;;;;24.30;6.63;;;;;;;;;;4962621;28;20396;-91
2022/01/13 13:04:35;;;;;;;17.80;9.60;;;;;;;;;;4954412;28;20049;-92
2022/01/13 13:07:01;;;;;;;23.17;9.95;;;;;;;;;;4969826;28;20035;-96
2022/01/13 13:09:29;;;;;;;16.02;5.93;;;;;;;;;;4956426;28;20050;-93
2022/01/13 13:11:59;;;;;;;16.80;8.45;;;;;;;;;;4956596;28;20027;-94
2022/01/13 13:14:34;;;;;;;21.05;7.75;;;;;;;;;;4973332;28;20030;-93
2022/01/13 13:17:00;;;;;;;17.13;7.93;;;;;;;;;;4968942;28;20031;-96
2022/01/13 13:19:26;;;;;;;12.57;6.45;;;;;;;;;;4971196;28;20471;-96
2022/01/13 13:21:52;;;;;;;22.00;7.43;;;;;;;;;;4945136;28;20803;-96
2022/01/13 13:24:22;;;;;;;10.75;5.72;;;;;;;;;;4970321;28;20097;-96
2022/01/13 13:26:48;;;;;;;15.32;7.43;;;;;;;;;;4954801;28;20126;-92
2022/01/13 13:29:22;;;;;;;16.15;6.93;;;;;;;;;;4957277;28;20031;-93
2022/01/13 13:31:48;;;;;;;16.65;6.90;;;;;;;;;;4966564;28;20059;-95
2022/01/13 13:34:15;;;;;;;16.98;8.13;;;;;;;;;;4955838;28;20488;-95
2022/01/13 13:36:43;;;;;;;19.80;7.03;;;5.30;75.20;;;;;;4957009;28;20525;-95
2022/01/13 13:39:16;;;;;;;17.85;7.72;;;5.60;74.20;;;;;;4953074;29;20528;-94
2022/01/13 13:41:50;;;;;;;25.67;9.35;;;5.60;73.70;;;;;;4967754;28;20352;-96
2022/01/13 13:44:25;;;;;;;18.20;8.50;;;5.60;73.80;;;;;;4973880;28;20048;-94
2022/01/13 13:46:54;;;;;;;20.75;9.25;;;;;;;;;;4973746;28;20086;-95
2022/01/13 13:49:21;;;;;;;27.23;10.30;;;5.80;73.60;;;;;;4971815;28;20089;-91
2022/01/13 13:51:51;;;;;;;20.73;9.13;;;;;;;;;;4955262;28;20030;-90
2022/01/13 13:54:17;;;;;;;20.15;8.20;;;;;;;;;;4955838;28;20043;-91
2022/01/13 13:56:58;;;;;;;17.85;8.65;;;5.90;74.20;;;;;;4945813;29;20083;-92
2022/01/13 13:59:31;;;;;;;17.27;8.35;;;;;;;;;;4961595;28;20026;-92
2022/01/13 14:02:02;;;;;;;19.73;6.03;;;;;;;;;;4954125;29;20031;-93
2022/01/13 14:04:37;;;;;;;20.98;8.98;;;5.60;74.80;;;;;;4970393;28;20043;-96
2022/01/13 14:07:18;;;;;;;23.25;8.10;;;5.50;75.00;;;;;;4955686;28;20031;-95
2022/01/13 14:09:44;;;;;;;16.95;7.07;;;;;;;;;;4955734;28;20027;-93
2022/01/13 14:12:12;;;;;;;14.27;6.80;;;;;;;;;;4971502;28;20514;-93
2022/01/13 14:14:41;;;;;;;15.18;6.40;;;;;;;;;;4965504;28;20023;-92
2022/01/13 14:17:08;;;;;;;20.27;7.95;;;;;;;;;;4948739;29;20530;-91
2022/01/13 14:19:34;;;;;;;20.27;7.57;;;;;;;;;;4972695;28;20027;-93
2022/01/13 14:22:01;;;;;;;17.55;7.18;;;;;;;;;;4956319;28;20029;-94
2022/01/13 14:24:49;;;;;;;22.27;8.60;;;;;;;;;;4972825;28;20511;-93
2022/01/13 14:27:15;;;;;;;19.95;7.25;;;;;;;;;;4952207;29;20631;-94
2022/01/13 14:29:42;;;;;;;22.60;8.13;;;;;;;;;;4965664;28;20117;-92
2022/01/13 14:32:19;;;;;;;21.40;9.63;;;6.00;73.60;;;;;;4967019;28;20035;-95
2022/01/13 14:34:47;;;;;;;19.02;9.05;;;;;;;;;;4953968;28;20031;-93
2022/01/13 14:37:13;;;;;;;16.63;8.95;;;;;;;;;;4969162;28;20053;-93
2022/01/13 14:39:40;;;;;;;17.67;8.80;;;;;;;;;;4965433;28;20033;-93
2022/01/13 14:42:10;;;;;;;15.27;7.10;;;;;;;;;;4955641;28;20031;-92
2022/01/13 14:44:37;;;;;;;25.67;9.07;;;;;;;;;;4951461;28;20129;-93
2022/01/13 14:47:07;;;;;;;19.38;7.75;;;;;;;;;;4974892;28;20078;-95
2022/01/13 14:49:35;;;;;;;22.15;8.63;;;;;;;;;;4978921;28;20042;-96
2022/01/13 14:52:03;;;;;;;21.33;9.90;;;5.10;76.20;;;;;;4975528;28;20034;-96
2022/01/13 14:54:29;;;;;;;22.48;8.32;;;;;;;;;;4979185;28;20038;-96
2022/01/13 14:56:55;;;;;;;19.00;8.45;;;;;;;;;;4978568;28;20030;-96
2022/01/13 14:59:21;;;;;;;32.05;10.32;;;;;;;;;;4981284;28;20121;-96
2022/01/13 15:01:48;;;;;;;17.30;7.57;;;;;;;;;;4983171;28;20027;-96
2022/01/13 15:04:15;;;;;;;25.57;9.97;;;;;;;;;;4983374;28;20070;-96
2022/01/13 15:06:41;;;;;;;26.30;9.80;;;;;;;;;;4985157;28;20258;-96
2022/01/13 15:09:07;;;;;;;25.67;9.02;;;;;;;;;;4969998;28;20027;-96
2022/01/13 15:11:34;;;;;;;20.45;6.75;;;;;;;;;;4976152;28;20023;-96
2022/01/13 15:14:00;;;;;;;23.77;8.63;;;;;;;;;;4961136;28;20503;-96
2022/01/13 15:16:26;;;;;;;21.88;8.40;;;;;;;;;;4954051;28;20034;-93
2022/01/13 15:18:58;;;;;;;19.83;6.53;;;;;;;;;;4966451;28;20089;-91
2022/01/13 15:21:26;;;;;;;19.20;10.75;;;;;;;;;;4971175;28;20041;-95
2022/01/13 15:23:52;;;;;;;20.38;7.70;;;;;;;;;;4963671;28;20035;-95
2022/01/13 15:26:18;;;;;;;17.38;8.57;;;;;;;;;;4955975;28;20039;-96